Terminal Aerodrome Forecast
Issued by NWS

Current Version | Previous Version | Text Only | Print | Product List | Glossary Off
Versions: 1 2 3 4 5 6 7 8 9 10 11 12 13 14 15 16 17 18 19 20 21 22 23 24 25

000
FTUS41 KILN 222320
TAFLUK
TAF
KLUK 222320Z 2300/2324 VRB03KT P6SM SCT250
     FM230400 00000KT 3SM BR BKN200
      TEMPO 2307/2311 1/2SM FG SCT002 BKN200
     FM231100 VRB03KT P6SM BKN200=

USA.gov is the U.S. government's official web portal to all federal, state and local government web resources and services.